sensor_id;sensor_type;location;lat;lon;timestamp;P1;durP1;ratioP1;P2;durP2;ratioP2
27642;SDS011;15053;48.618;10.024;2023-12-04T00:00:55;45.20;;;19.90;;
27642;SDS011;15053;48.618;10.024;2023-12-04T00:03:22;44.97;;;17.67;;
27642;SDS011;15053;48.618;10.024;2023-12-04T00:05:48;40.40;;;17.75;;
27642;SDS011;15053;48.618;10.024;2023-12-04T00:08:15;39.45;;;16.08;;
27642;SDS011;15053;48.618;10.024;2023-12-04T00:10:41;41.08;;;16.92;;
27642;SDS011;15053;48.618;10.024;2023-12-04T00:13:08;40.15;;;17.17;;
27642;SDS011;15053;48.618;10.024;2023-12-04T00:15:34;38.70;;;18.15;;
27642;SDS011;15053;48.618;10.024;2023-12-04T00:18:01;35.90;;;18.17;;
27642;SDS011;15053;48.618;10.024;2023-12-04T00:20:28;42.33;;;18.48;;
27642;SDS011;15053;48.618;10.024;2023-12-04T00:22:54;45.58;;;18.27;;
27642;SDS011;15053;48.618;10.024;2023-12-04T00:25:21;57.85;;;18.83;;
27642;SDS011;15053;48.618;10.024;2023-12-04T00:27:47;35.55;;;16.70;;
27642;SDS011;15053;48.618;10.024;2023-12-04T00:30:14;41.72;;;15.63;;
27642;SDS011;15053;48.618;10.024;2023-12-04T00:32:40;45.05;;;18.35;;
27642;SDS011;15053;48.618;10.024;2023-12-04T00:35:07;41.55;;;17.10;;
27642;SDS011;15053;48.618;10.024;2023-12-04T00:37:34;47.28;;;19.40;;
27642;SDS011;15053;48.618;10.024;2023-12-04T00:40:05;56.30;;;17.83;;
27642;SDS011;15053;48.618;10.024;2023-12-04T00:42:32;101.43;;;21.05;;
27642;SDS011;15053;48.618;10.024;2023-12-04T00:44:59;48.13;;;18.38;;
27642;SDS011;15053;48.618;10.024;2023-12-04T00:47:25;113.90;;;20.77;;
27642;SDS011;15053;48.618;10.024;2023-12-04T00:49:52;147.45;;;22.35;;
27642;SDS011;15053;48.618;10.024;2023-12-04T00:52:18;129.52;;;22.45;;
27642;SDS011;15053;48.618;10.024;2023-12-04T00:54:45;100.60;;;21.27;;
27642;SDS011;15053;48.618;10.024;2023-12-04T00:57:11;93.15;;;19.23;;
27642;SDS011;15053;48.618;10.024;2023-12-04T00:59:38;95.70;;;21.25;;
27642;SDS011;15053;48.618;10.024;2023-12-04T01:02:05;70.63;;;20.05;;
27642;SDS011;15053;48.618;10.024;2023-12-04T01:04:33;66.55;;;19.38;;
27642;SDS011;15053;48.618;10.024;2023-12-04T01:07:00;61.20;;;20.73;;
27642;SDS011;15053;48.618;10.024;2023-12-04T01:09:27;91.03;;;24.98;;
27642;SDS011;15053;48.618;10.024;2023-12-04T01:11:54;65.72;;;22.35;;
27642;SDS011;15053;48.618;10.024;2023-12-04T01:14:20;167.70;;;25.83;;
27642;SDS011;15053;48.618;10.024;2023-12-04T01:16:47;176.43;;;25.23;;
27642;SDS011;15053;48.618;10.024;2023-12-04T01:19:14;121.60;;;25.73;;
27642;SDS011;15053;48.618;10.024;2023-12-04T01:21:40;172.43;;;26.52;;
27642;SDS011;15053;48.618;10.024;2023-12-04T01:24:08;160.55;;;27.63;;
27642;SDS011;15053;48.618;10.024;2023-12-04T01:26:35;77.55;;;24.05;;
27642;SDS011;15053;48.618;10.024;2023-12-04T01:29:01;127.80;;;24.15;;
27642;SDS011;15053;48.618;10.024;2023-12-04T01:31:28;201.18;;;28.17;;
27642;SDS011;15053;48.618;10.024;2023-12-04T01:33:54;165.35;;;22.80;;
27642;SDS011;15053;48.618;10.024;2023-12-04T01:36:21;201.95;;;28.27;;
27642;SDS011;15053;48.618;10.024;2023-12-04T01:38:48;134.20;;;22.30;;
27642;SDS011;15053;48.618;10.024;2023-12-04T01:41:14;108.13;;;24.27;;
27642;SDS011;15053;48.618;10.024;2023-12-04T01:43:41;139.93;;;23.88;;
27642;SDS011;15053;48.618;10.024;2023-12-04T01:46:07;149.98;;;27.02;;
27642;SDS011;15053;48.618;10.024;2023-12-04T01:48:34;93.75;;;23.83;;
27642;SDS011;15053;48.618;10.024;2023-12-04T01:51:04;214.68;;;25.27;;
27642;SDS011;15053;48.618;10.024;2023-12-04T01:53:34;187.48;;;24.15;;
27642;SDS011;15053;48.618;10.024;2023-12-04T01:56:02;146.88;;;24.30;;
27642;SDS011;15053;48.618;10.024;2023-12-04T01:58:29;144.88;;;23.00;;
27642;SDS011;15053;48.618;10.024;2023-12-04T02:00:55;139.85;;;22.35;;
27642;SDS011;15053;48.618;10.024;2023-12-04T02:03:22;140.15;;;24.48;;
27642;SDS011;15053;48.618;10.024;2023-12-04T02:05:50;106.47;;;22.50;;
27642;SDS011;15053;48.618;10.024;2023-12-04T02:08:17;114.05;;;24.23;;
27642;SDS011;15053;48.618;10.024;2023-12-04T02:10:44;162.00;;;25.90;;
27642;SDS011;15053;48.618;10.024;2023-12-04T02:13:11;104.75;;;19.48;;
27642;SDS011;15053;48.618;10.024;2023-12-04T02:15:37;70.43;;;20.08;;
27642;SDS011;15053;48.618;10.024;2023-12-04T02:18:04;65.85;;;21.02;;
27642;SDS011;15053;48.618;10.024;2023-12-04T02:20:34;68.93;;;20.15;;
27642;SDS011;15053;48.618;10.024;2023-12-04T02:23:01;106.35;;;21.42;;
27642;SDS011;15053;48.618;10.024;2023-12-04T02:25:28;102.28;;;21.73;;
27642;SDS011;15053;48.618;10.024;2023-12-04T02:28:05;146.82;;;24.92;;
27642;SDS011;15053;48.618;10.024;2023-12-04T02:30:34;65.15;;;20.85;;
27642;SDS011;15053;48.618;10.024;2023-12-04T02:33:04;109.22;;;25.33;;
27642;SDS011;15053;48.618;10.024;2023-12-04T02:35:33;116.68;;;22.02;;
27642;SDS011;15053;48.618;10.024;2023-12-04T02:38:01;79.72;;;22.50;;
27642;SDS011;15053;48.618;10.024;2023-12-04T02:40:29;65.35;;;22.17;;
27642;SDS011;15053;48.618;10.024;2023-12-04T02:42:56;73.95;;;22.95;;
27642;SDS011;15053;48.618;10.024;2023-12-04T02:45:22;88.35;;;21.20;;
27642;SDS011;15053;48.618;10.024;2023-12-04T02:47:49;88.70;;;23.80;;
27642;SDS011;15053;48.618;10.024;2023-12-04T02:50:15;98.72;;;23.70;;
27642;SDS011;15053;48.618;10.024;2023-12-04T02:52:42;99.15;;;21.83;;
27642;SDS011;15053;48.618;10.024;2023-12-04T02:55:08;93.65;;;20.95;;
27642;SDS011;15053;48.618;10.024;2023-12-04T02:57:35;78.75;;;19.48;;
27642;SDS011;15053;48.618;10.024;2023-12-04T03:00:02;44.92;;;17.52;;
27642;SDS011;15053;48.618;10.024;2023-12-04T03:02:30;56.33;;;18.02;;
27642;SDS011;15053;48.618;10.024;2023-12-04T03:04:57;47.88;;;18.58;;
27642;SDS011;15053;48.618;10.024;2023-12-04T03:07:23;54.30;;;18.70;;
27642;SDS011;15053;48.618;10.024;2023-12-04T03:09:50;50.97;;;18.40;;
27642;SDS011;15053;48.618;10.024;2023-12-04T03:12:17;50.28;;;20.52;;
27642;SDS011;15053;48.618;10.024;2023-12-04T03:14:44;44.53;;;16.75;;
27642;SDS011;15053;48.618;10.024;2023-12-04T03:17:10;50.20;;;17.65;;
27642;SDS011;15053;48.618;10.024;2023-12-04T03:19:37;43.33;;;18.15;;
27642;SDS011;15053;48.618;10.024;2023-12-04T03:22:04;46.08;;;18.55;;
27642;SDS011;15053;48.618;10.024;2023-12-04T03:24:30;47.42;;;17.75;;
27642;SDS011;15053;48.618;10.024;2023-12-04T03:26:57;48.70;;;17.23;;
27642;SDS011;15053;48.618;10.024;2023-12-04T03:29:25;50.47;;;18.67;;
27642;SDS011;15053;48.618;10.024;2023-12-04T03:31:51;49.97;;;17.92;;
27642;SDS011;15053;48.618;10.024;2023-12-04T03:34:17;45.90;;;16.55;;
27642;SDS011;15053;48.618;10.024;2023-12-04T03:36:44;95.65;;;16.33;;
27642;SDS011;15053;48.618;10.024;2023-12-04T03:39:11;120.57;;;19.70;;
27642;SDS011;15053;48.618;10.024;2023-12-04T03:41:37;112.45;;;18.92;;
27642;SDS011;15053;48.618;10.024;2023-12-04T03:44:04;94.72;;;18.25;;
27642;SDS011;15053;48.618;10.024;2023-12-04T03:46:30;56.15;;;15.98;;
27642;SDS011;15053;48.618;10.024;2023-12-04T03:48:57;161.93;;;19.70;;
27642;SDS011;15053;48.618;10.024;2023-12-04T03:51:24;52.50;;;17.17;;
27642;SDS011;15053;48.618;10.024;2023-12-04T03:53:50;107.97;;;19.23;;
27642;SDS011;15053;48.618;10.024;2023-12-04T03:56:17;89.55;;;21.48;;
27642;SDS011;15053;48.618;10.024;2023-12-04T03:58:43;100.45;;;18.08;;
27642;SDS011;15053;48.618;10.024;2023-12-04T04:01:10;69.85;;;18.65;;
27642;SDS011;15053;48.618;10.024;2023-12-04T04:03:37;107.70;;;20.63;;
27642;SDS011;15053;48.618;10.024;2023-12-04T04:06:06;125.38;;;20.58;;
27642;SDS011;15053;48.618;10.024;2023-12-04T04:08:33;119.63;;;19.55;;
27642;SDS011;15053;48.618;10.024;2023-12-04T04:10:59;100.10;;;18.88;;
27642;SDS011;15053;48.618;10.024;2023-12-04T04:13:26;113.50;;;19.63;;
27642;SDS011;15053;48.618;10.024;2023-12-04T04:15:52;111.57;;;18.83;;
27642;SDS011;15053;48.618;10.024;2023-12-04T04:18:19;130.35;;;20.73;;
27642;SDS011;15053;48.618;10.024;2023-12-04T04:20:46;135.02;;;21.20;;
27642;SDS011;15053;48.618;10.024;2023-12-04T04:23:12;58.58;;;18.60;;
27642;SDS011;15053;48.618;10.024;2023-12-04T04:25:39;93.93;;;19.30;;
27642;SDS011;15053;48.618;10.024;2023-12-04T04:28:05;116.50;;;25.70;;
27642;SDS011;15053;48.618;10.024;2023-12-04T04:30:32;131.60;;;23.05;;
27642;SDS011;15053;48.618;10.024;2023-12-04T04:32:59;105.72;;;22.40;;
27642;SDS011;15053;48.618;10.024;2023-12-04T04:35:25;118.68;;;24.50;;
27642;SDS011;15053;48.618;10.024;2023-12-04T04:37:52;132.82;;;27.08;;
27642;SDS011;15053;48.618;10.024;2023-12-04T04:40:18;97.95;;;23.42;;
27642;SDS011;15053;48.618;10.024;2023-12-04T04:42:45;92.18;;;21.88;;
27642;SDS011;15053;48.618;10.024;2023-12-04T04:45:12;124.25;;;21.52;;
27642;SDS011;15053;48.618;10.024;2023-12-04T04:47:38;97.13;;;23.20;;
27642;SDS011;15053;48.618;10.024;2023-12-04T04:50:05;74.65;;;21.88;;
27642;SDS011;15053;48.618;10.024;2023-12-04T04:52:32;64.93;;;20.88;;
27642;SDS011;15053;48.618;10.024;2023-12-04T04:54:59;83.90;;;19.98;;
27642;SDS011;15053;48.618;10.024;2023-12-04T04:57:25;67.22;;;20.33;;
27642;SDS011;15053;48.618;10.024;2023-12-04T04:59:52;60.45;;;20.80;;
27642;SDS011;15053;48.618;10.024;2023-12-04T05:02:18;93.03;;;20.30;;
27642;SDS011;15053;48.618;10.024;2023-12-04T05:04:45;58.97;;;20.30;;
27642;SDS011;15053;48.618;10.024;2023-12-04T05:07:11;83.93;;;19.20;;
27642;SDS011;15053;48.618;10.024;2023-12-04T05:09:39;66.68;;;19.92;;
27642;SDS011;15053;48.618;10.024;2023-12-04T05:12:05;59.58;;;19.63;;
27642;SDS011;15053;48.618;10.024;2023-12-04T05:14:32;50.70;;;19.33;;
27642;SDS011;15053;48.618;10.024;2023-12-04T05:16:58;66.78;;;21.63;;
27642;SDS011;15053;48.618;10.024;2023-12-04T05:19:25;51.80;;;19.88;;
27642;SDS011;15053;48.618;10.024;2023-12-04T05:21:52;79.60;;;22.85;;
27642;SDS011;15053;48.618;10.024;2023-12-04T05:24:18;63.17;;;21.17;;
27642;SDS011;15053;48.618;10.024;2023-12-04T05:26:45;58.42;;;19.15;;
27642;SDS011;15053;48.618;10.024;2023-12-04T05:29:11;56.97;;;18.63;;
27642;SDS011;15053;48.618;10.024;2023-12-04T05:31:38;56.80;;;19.00;;
27642;SDS011;15053;48.618;10.024;2023-12-04T05:34:05;65.18;;;20.27;;
27642;SDS011;15053;48.618;10.024;2023-12-04T05:36:32;53.97;;;20.92;;
27642;SDS011;15053;48.618;10.024;2023-12-04T05:38:58;54.45;;;19.85;;
27642;SDS011;15053;48.618;10.024;2023-12-04T05:41:27;81.53;;;21.42;;
27642;SDS011;15053;48.618;10.024;2023-12-04T05:43:53;75.65;;;23.05;;
27642;SDS011;15053;48.618;10.024;2023-12-04T05:46:20;69.20;;;21.42;;
27642;SDS011;15053;48.618;10.024;2023-12-04T05:48:47;65.00;;;20.40;;
27642;SDS011;15053;48.618;10.024;2023-12-04T05:51:14;60.38;;;22.55;;
27642;SDS011;15053;48.618;10.024;2023-12-04T05:53:41;61.45;;;22.38;;
27642;SDS011;15053;48.618;10.024;2023-12-04T05:56:08;63.05;;;22.27;;
27642;SDS011;15053;48.618;10.024;2023-12-04T05:58:35;60.55;;;21.55;;
27642;SDS011;15053;48.618;10.024;2023-12-04T06:01:01;62.53;;;20.42;;
27642;SDS011;15053;48.618;10.024;2023-12-04T06:03:29;57.42;;;19.92;;
27642;SDS011;15053;48.618;10.024;2023-12-04T06:05:55;51.50;;;21.65;;
27642;SDS011;15053;48.618;10.024;2023-12-04T06:08:25;50.03;;;19.65;;
27642;SDS011;15053;48.618;10.024;2023-12-04T06:10:51;54.35;;;20.42;;
27642;SDS011;15053;48.618;10.024;2023-12-04T06:13:18;46.85;;;19.48;;
27642;SDS011;15053;48.618;10.024;2023-12-04T06:15:44;60.92;;;21.40;;
27642;SDS011;15053;48.618;10.024;2023-12-04T06:18:11;58.50;;;19.90;;
27642;SDS011;15053;48.618;10.024;2023-12-04T06:20:37;56.88;;;20.83;;
27642;SDS011;15053;48.618;10.024;2023-12-04T06:23:04;58.40;;;20.95;;
27642;SDS011;15053;48.618;10.024;2023-12-04T06:25:31;58.42;;;20.33;;
27642;SDS011;15053;48.618;10.024;2023-12-04T06:27:58;60.95;;;20.70;;
27642;SDS011;15053;48.618;10.024;2023-12-04T06:30:24;63.97;;;21.17;;
27642;SDS011;15053;48.618;10.024;2023-12-04T06:32:51;63.65;;;21.35;;
27642;SDS011;15053;48.618;10.024;2023-12-04T06:35:18;60.78;;;21.35;;
27642;SDS011;15053;48.618;10.024;2023-12-04T06:37:47;55.08;;;22.13;;
27642;SDS011;15053;48.618;10.024;2023-12-04T06:40:15;71.28;;;23.13;;
27642;SDS011;15053;48.618;10.024;2023-12-04T06:42:41;66.72;;;22.02;;
27642;SDS011;15053;48.618;10.024;2023-12-04T06:45:08;59.08;;;21.85;;
27642;SDS011;15053;48.618;10.024;2023-12-04T06:47:36;59.40;;;19.92;;
27642;SDS011;15053;48.618;10.024;2023-12-04T06:50:03;62.00;;;21.00;;
27642;SDS011;15053;48.618;10.024;2023-12-04T06:52:30;55.53;;;19.20;;
27642;SDS011;15053;48.618;10.024;2023-12-04T06:54:56;56.90;;;21.23;;
27642;SDS011;15053;48.618;10.024;2023-12-04T06:57:23;57.65;;;21.40;;
27642;SDS011;15053;48.618;10.024;2023-12-04T06:59:50;68.80;;;22.50;;
27642;SDS011;15053;48.618;10.024;2023-12-04T07:02:16;64.43;;;22.17;;
27642;SDS011;15053;48.618;10.024;2023-12-04T07:04:43;84.28;;;25.50;;
27642;SDS011;15053;48.618;10.024;2023-12-04T07:07:10;77.10;;;22.45;;
27642;SDS011;15053;48.618;10.024;2023-12-04T07:09:38;74.57;;;23.67;;
27642;SDS011;15053;48.618;10.024;2023-12-04T07:12:05;59.80;;;20.08;;
27642;SDS011;15053;48.618;10.024;2023-12-04T07:14:32;74.88;;;23.30;;
27642;SDS011;15053;48.618;10.024;2023-12-04T07:17:00;73.88;;;23.98;;
27642;SDS011;15053;48.618;10.024;2023-12-04T07:19:26;76.72;;;23.70;;
27642;SDS011;15053;48.618;10.024;2023-12-04T07:21:53;66.28;;;23.58;;
27642;SDS011;15053;48.618;10.024;2023-12-04T07:24:20;65.55;;;23.48;;
27642;SDS011;15053;48.618;10.024;2023-12-04T07:26:46;74.53;;;23.50;;
27642;SDS011;15053;48.618;10.024;2023-12-04T07:29:13;79.68;;;21.75;;
27642;SDS011;15053;48.618;10.024;2023-12-04T07:31:40;96.18;;;22.98;;
27642;SDS011;15053;48.618;10.024;2023-12-04T07:34:07;81.53;;;24.00;;
27642;SDS011;15053;48.618;10.024;2023-12-04T07:36:34;63.20;;;21.40;;
27642;SDS011;15053;48.618;10.024;2023-12-04T07:39:01;91.22;;;23.48;;
27642;SDS011;15053;48.618;10.024;2023-12-04T07:41:27;84.45;;;24.40;;
27642;SDS011;15053;48.618;10.024;2023-12-04T07:43:54;79.38;;;25.38;;
27642;SDS011;15053;48.618;10.024;2023-12-04T07:46:21;68.05;;;22.25;;
27642;SDS011;15053;48.618;10.024;2023-12-04T07:48:47;64.45;;;23.55;;
27642;SDS011;15053;48.618;10.024;2023-12-04T07:51:14;59.83;;;21.45;;
27642;SDS011;15053;48.618;10.024;2023-12-04T07:53:41;64.75;;;21.95;;
27642;SDS011;15053;48.618;10.024;2023-12-04T07:56:07;62.00;;;23.23;;
27642;SDS011;15053;48.618;10.024;2023-12-04T07:58:34;63.53;;;23.95;;
27642;SDS011;15053;48.618;10.024;2023-12-04T08:01:01;63.92;;;25.02;;
27642;SDS011;15053;48.618;10.024;2023-12-04T08:03:27;59.17;;;21.55;;
27642;SDS011;15053;48.618;10.024;2023-12-04T08:05:54;52.22;;;21.55;;
27642;SDS011;15053;48.618;10.024;2023-12-04T08:08:21;56.65;;;22.98;;
27642;SDS011;15053;48.618;10.024;2023-12-04T08:10:48;57.50;;;21.55;;
27642;SDS011;15053;48.618;10.024;2023-12-04T08:13:14;61.90;;;22.92;;
27642;SDS011;15053;48.618;10.024;2023-12-04T08:15:42;59.25;;;21.67;;
27642;SDS011;15053;48.618;10.024;2023-12-04T08:18:09;50.85;;;20.08;;
27642;SDS011;15053;48.618;10.024;2023-12-04T08:20:36;57.30;;;21.70;;
27642;SDS011;15053;48.618;10.024;2023-12-04T08:23:06;54.33;;;22.40;;
27642;SDS011;15053;48.618;10.024;2023-12-04T08:25:33;45.75;;;19.58;;
27642;SDS011;15053;48.618;10.024;2023-12-04T08:28:00;55.33;;;20.65;;
27642;SDS011;15053;48.618;10.024;2023-12-04T08:30:27;53.75;;;20.77;;
27642;SDS011;15053;48.618;10.024;2023-12-04T08:32:54;51.80;;;20.65;;
27642;SDS011;15053;48.618;10.024;2023-12-04T08:35:21;52.45;;;20.80;;
27642;SDS011;15053;48.618;10.024;2023-12-04T08:37:48;57.30;;;21.52;;
27642;SDS011;15053;48.618;10.024;2023-12-04T08:40:15;58.03;;;22.50;;
27642;SDS011;15053;48.618;10.024;2023-12-04T08:42:42;52.53;;;22.08;;
27642;SDS011;15053;48.618;10.024;2023-12-04T08:45:09;61.15;;;22.25;;
27642;SDS011;15053;48.618;10.024;2023-12-04T08:47:36;55.90;;;22.58;;
27642;SDS011;15053;48.618;10.024;2023-12-04T08:50:03;50.38;;;20.63;;
27642;SDS011;15053;48.618;10.024;2023-12-04T08:52:31;57.67;;;22.35;;
27642;SDS011;15053;48.618;10.024;2023-12-04T08:54:57;52.42;;;20.15;;
27642;SDS011;15053;48.618;10.024;2023-12-04T08:57:24;58.38;;;21.60;;
27642;SDS011;15053;48.618;10.024;2023-12-04T08:59:50;57.47;;;22.98;;
27642;SDS011;15053;48.618;10.024;2023-12-04T09:02:17;57.17;;;21.45;;
27642;SDS011;15053;48.618;10.024;2023-12-04T09:04:44;55.70;;;21.65;;
27642;SDS011;15053;48.618;10.024;2023-12-04T09:07:11;49.78;;;21.70;;
27642;SDS011;15053;48.618;10.024;2023-12-04T09:09:57;63.50;;;22.10;;
27642;SDS011;15053;48.618;10.024;2023-12-04T09:12:26;46.15;;;22.40;;
27642;SDS011;15053;48.618;10.024;2023-12-04T09:14:53;53.05;;;21.38;;
27642;SDS011;15053;48.618;10.024;2023-12-04T09:17:19;53.83;;;21.63;;
27642;SDS011;15053;48.618;10.024;2023-12-04T09:19:48;45.10;;;20.15;;
27642;SDS011;15053;48.618;10.024;2023-12-04T09:22:15;50.22;;;23.23;;
27642;SDS011;15053;48.618;10.024;2023-12-04T09:24:46;47.25;;;22.60;;
27642;SDS011;15053;48.618;10.024;2023-12-04T09:27:13;52.88;;;23.13;;
27642;SDS011;15053;48.618;10.024;2023-12-04T09:29:40;61.63;;;23.35;;
27642;SDS011;15053;48.618;10.024;2023-12-04T09:32:07;49.10;;;21.95;;
27642;SDS011;15053;48.618;10.024;2023-12-04T09:34:34;51.30;;;21.48;;
27642;SDS011;15053;48.618;10.024;2023-12-04T09:37:00;45.80;;;19.35;;
27642;SDS011;15053;48.618;10.024;2023-12-04T09:39:36;49.80;;;21.05;;
27642;SDS011;15053;48.618;10.024;2023-12-04T09:42:02;56.40;;;22.48;;
27642;SDS011;15053;48.618;10.024;2023-12-04T09:44:30;56.63;;;24.60;;
27642;SDS011;15053;48.618;10.024;2023-12-04T09:46:57;53.15;;;21.42;;
27642;SDS011;15053;48.618;10.024;2023-12-04T09:49:26;48.92;;;20.65;;
27642;SDS011;15053;48.618;10.024;2023-12-04T09:52:00;46.85;;;20.83;;
27642;SDS011;15053;48.618;10.024;2023-12-04T09:54:29;42.28;;;19.33;;
27642;SDS011;15053;48.618;10.024;2023-12-04T09:56:57;52.45;;;21.35;;
27642;SDS011;15053;48.618;10.024;2023-12-04T09:59:24;46.08;;;20.58;;
27642;SDS011;15053;48.618;10.024;2023-12-04T10:01:52;47.50;;;20.60;;
27642;SDS011;15053;48.618;10.024;2023-12-04T10:04:19;55.15;;;22.42;;
27642;SDS011;15053;48.618;10.024;2023-12-04T10:06:48;42.97;;;20.15;;
27642;SDS011;15053;48.618;10.024;2023-12-04T10:09:17;45.67;;;20.17;;
27642;SDS011;15053;48.618;10.024;2023-12-04T10:11:45;44.40;;;19.98;;
27642;SDS011;15053;48.618;10.024;2023-12-04T10:14:16;47.33;;;20.25;;
27642;SDS011;15053;48.618;10.024;2023-12-04T10:16:43;46.00;;;19.40;;
27642;SDS011;15053;48.618;10.024;2023-12-04T10:19:14;47.15;;;20.05;;
27642;SDS011;15053;48.618;10.024;2023-12-04T10:21:47;48.72;;;21.67;;
27642;SDS011;15053;48.618;10.024;2023-12-04T10:24:49;47.63;;;21.27;;
27642;SDS011;15053;48.618;10.024;2023-12-04T10:27:08;49.42;;;21.33;;
27642;SDS011;15053;48.618;10.024;2023-12-04T10:29:42;42.10;;;20.63;;
27642;SDS011;15053;48.618;10.024;2023-12-04T10:32:14;50.10;;;21.15;;
27642;SDS011;15053;48.618;10.024;2023-12-04T10:34:47;53.63;;;23.50;;
27642;SDS011;15053;48.618;10.024;2023-12-04T10:37:14;53.92;;;22.85;;
27642;SDS011;15053;48.618;10.024;2023-12-04T10:39:47;60.10;;;23.42;;
27642;SDS011;15053;48.618;10.024;2023-12-04T10:42:25;57.65;;;23.90;;
27642;SDS011;15053;48.618;10.024;2023-12-04T10:44:59;84.70;;;33.63;;
27642;SDS011;15053;48.618;10.024;2023-12-04T10:47:29;74.50;;;30.67;;
27642;SDS011;15053;48.618;10.024;2023-12-04T10:49:59;49.15;;;22.90;;
27642;SDS011;15053;48.618;10.024;2023-12-04T10:52:25;50.22;;;21.42;;
27642;SDS011;15053;48.618;10.024;2023-12-04T10:54:52;62.17;;;28.33;;
27642;SDS011;15053;48.618;10.024;2023-12-04T10:57:25;50.63;;;22.05;;
27642;SDS011;15053;48.618;10.024;2023-12-04T11:00:11;53.97;;;24.50;;
27642;SDS011;15053;48.618;10.024;2023-12-04T11:02:43;53.35;;;23.25;;
27642;SDS011;15053;48.618;10.024;2023-12-04T11:05:15;58.85;;;23.92;;
27642;SDS011;15053;48.618;10.024;2023-12-04T11:07:48;56.88;;;24.15;;
27642;SDS011;15053;48.618;10.024;2023-12-04T11:10:44;58.10;;;24.60;;
27642;SDS011;15053;48.618;10.024;2023-12-04T11:13:15;56.38;;;23.33;;
27642;SDS011;15053;48.618;10.024;2023-12-04T11:15:47;60.58;;;26.02;;
27642;SDS011;15053;48.618;10.024;2023-12-04T11:18:20;56.37;;;23.53;;
27642;SDS011;15053;48.618;10.024;2023-12-04T11:23:22;59.70;;;24.13;;
27642;SDS011;15053;48.618;10.024;2023-12-04T11:25:50;64.13;;;27.00;;
27642;SDS011;15053;48.618;10.024;2023-12-04T11:28:17;64.68;;;26.70;;
27642;SDS011;15053;48.618;10.024;2023-12-04T11:30:45;63.53;;;27.08;;
27642;SDS011;15053;48.618;10.024;2023-12-04T11:33:12;77.72;;;31.80;;
27642;SDS011;15053;48.618;10.024;2023-12-04T11:35:39;72.80;;;31.58;;
27642;SDS011;15053;48.618;10.024;2023-12-04T11:38:06;65.93;;;27.55;;
27642;SDS011;15053;48.618;10.024;2023-12-04T11:40:35;55.03;;;24.27;;
27642;SDS011;15053;48.618;10.024;2023-12-04T11:46:07;54.70;;;25.10;;
27642;SDS011;15053;48.618;10.024;2023-12-04T11:48:38;60.13;;;27.73;;
27642;SDS011;15053;48.618;10.024;2023-12-04T11:51:08;59.07;;;27.00;;
27642;SDS011;15053;48.618;10.024;2023-12-04T11:53:38;62.42;;;27.00;;
27642;SDS011;15053;48.618;10.024;2023-12-04T11:56:10;66.88;;;31.27;;
27642;SDS011;15053;48.618;10.024;2023-12-04T11:58:44;60.10;;;27.05;;
27642;SDS011;15053;48.618;10.024;2023-12-04T12:01:11;61.45;;;28.30;;
27642;SDS011;15053;48.618;10.024;2023-12-04T12:03:38;51.95;;;25.67;;
27642;SDS011;15053;48.618;10.024;2023-12-04T12:06:06;51.17;;;25.65;;
27642;SDS011;15053;48.618;10.024;2023-12-04T12:08:33;48.55;;;22.40;;
27642;SDS011;15053;48.618;10.024;2023-12-04T12:11:00;50.20;;;23.63;;
27642;SDS011;15053;48.618;10.024;2023-12-04T12:13:27;51.75;;;23.25;;
27642;SDS011;15053;48.618;10.024;2023-12-04T12:15:53;51.92;;;24.17;;
27642;SDS011;15053;48.618;10.024;2023-12-04T12:18:21;50.63;;;23.52;;
27642;SDS011;15053;48.618;10.024;2023-12-04T12:20:49;48.33;;;21.83;;
27642;SDS011;15053;48.618;10.024;2023-12-04T12:23:16;53.08;;;23.20;;
27642;SDS011;15053;48.618;10.024;2023-12-04T12:25:42;52.50;;;24.38;;
27642;SDS011;15053;48.618;10.024;2023-12-04T12:28:09;50.78;;;23.20;;
27642;SDS011;15053;48.618;10.024;2023-12-04T12:30:36;46.95;;;22.55;;
27642;SDS011;15053;48.618;10.024;2023-12-04T12:33:03;48.17;;;22.13;;
27642;SDS011;15053;48.618;10.024;2023-12-04T12:35:30;52.97;;;24.02;;
27642;SDS011;15053;48.618;10.024;2023-12-04T12:37:57;53.90;;;23.20;;
27642;SDS011;15053;48.618;10.024;2023-12-04T12:40:23;54.20;;;24.13;;
27642;SDS011;15053;48.618;10.024;2023-12-04T12:43:02;48.83;;;23.42;;
27642;SDS011;15053;48.618;10.024;2023-12-04T12:45:40;57.28;;;23.05;;
27642;SDS011;15053;48.618;10.024;2023-12-04T12:48:10;50.78;;;22.70;;
27642;SDS011;15053;48.618;10.024;2023-12-04T12:50:39;54.88;;;25.10;;
27642;SDS011;15053;48.618;10.024;2023-12-04T12:53:05;49.30;;;22.52;;
27642;SDS011;15053;48.618;10.024;2023-12-04T12:55:32;61.95;;;25.75;;
27642;SDS011;15053;48.618;10.024;2023-12-04T12:57:58;60.97;;;25.55;;
27642;SDS011;15053;48.618;10.024;2023-12-04T13:00:26;74.43;;;30.10;;
27642;SDS011;15053;48.618;10.024;2023-12-04T13:02:54;63.53;;;26.25;;
27642;SDS011;15053;48.618;10.024;2023-12-04T13:05:21;68.30;;;28.15;;
27642;SDS011;15053;48.618;10.024;2023-12-04T13:07:48;61.72;;;26.17;;
27642;SDS011;15053;48.618;10.024;2023-12-04T13:10:14;66.70;;;27.92;;
27642;SDS011;15053;48.618;10.024;2023-12-04T13:12:42;68.03;;;28.35;;
27642;SDS011;15053;48.618;10.024;2023-12-04T13:15:08;70.60;;;28.80;;
27642;SDS011;15053;48.618;10.024;2023-12-04T13:17:36;66.18;;;29.70;;
27642;SDS011;15053;48.618;10.024;2023-12-04T13:20:03;66.35;;;27.52;;
27642;SDS011;15053;48.618;10.024;2023-12-04T13:22:31;69.70;;;29.27;;
27642;SDS011;15053;48.618;10.024;2023-12-04T13:24:59;72.18;;;30.63;;
27642;SDS011;15053;48.618;10.024;2023-12-04T13:27:26;74.75;;;30.10;;
27642;SDS011;15053;48.618;10.024;2023-12-04T13:29:52;77.63;;;31.90;;
27642;SDS011;15053;48.618;10.024;2023-12-04T13:32:19;71.20;;;29.88;;
27642;SDS011;15053;48.618;10.024;2023-12-04T13:34:46;71.57;;;29.67;;
27642;SDS011;15053;48.618;10.024;2023-12-04T13:37:13;71.95;;;29.63;;
27642;SDS011;15053;48.618;10.024;2023-12-04T13:39:39;70.47;;;30.20;;
27642;SDS011;15053;48.618;10.024;2023-12-04T13:42:15;69.85;;;29.02;;
27642;SDS011;15053;48.618;10.024;2023-12-04T13:45:00;74.22;;;29.73;;
27642;SDS011;15053;48.618;10.024;2023-12-04T13:47:28;75.72;;;31.40;;
27642;SDS011;15053;48.618;10.024;2023-12-04T13:49:54;80.57;;;34.55;;
27642;SDS011;15053;48.618;10.024;2023-12-04T13:52:21;72.53;;;30.55;;
27642;SDS011;15053;48.618;10.024;2023-12-04T13:54:49;73.15;;;30.65;;
27642;SDS011;15053;48.618;10.024;2023-12-04T13:57:16;77.95;;;31.20;;
27642;SDS011;15053;48.618;10.024;2023-12-04T14:00:02;74.63;;;30.48;;
27642;SDS011;15053;48.618;10.024;2023-12-04T14:02:31;81.63;;;31.30;;
27642;SDS011;15053;48.618;10.024;2023-12-04T14:04:57;89.18;;;31.73;;
27642;SDS011;15053;48.618;10.024;2023-12-04T14:07:24;82.85;;;33.25;;
27642;SDS011;15053;48.618;10.024;2023-12-04T14:09:52;84.47;;;34.90;;
27642;SDS011;15053;48.618;10.024;2023-12-04T14:12:19;86.25;;;34.63;;
27642;SDS011;15053;48.618;10.024;2023-12-04T14:14:46;81.97;;;32.80;;